Time;durP1;ratioP1;P1;durP2;ratioP2;P2;SDS_P1;SDS_P2;PMS_P1;PMS_P2;Temp;Humidity;BMP_temperature;BMP_pressure;BME280_temperature;BME280_humidity;BME280_pressure;Samples;Min_cycle;Max_cycle;Signal;HPM_P1;HPM_P2
2023/06/24 00:00:12;;;;;;;2.67;2.17;;;27.00;45.70;;;;;;5038506;28;20049;-61
2023/06/24 00:02:38;;;;;;;4.00;2.17;;;27.00;45.70;;;;;;5036907;28;20029;-63
2023/06/24 00:05:06;;;;;;;3.38;2.22;;;27.00;45.80;;;;;;5037047;28;20029;-62
2023/06/24 00:07:35;;;;;;;1.95;1.70;;;27.00;45.80;;;;;;5035986;28;20040;-63
2023/06/24 00:10:03;;;;;;;3.20;2.05;;;27.00;45.80;;;;;;5034147;28;20108;-62
2023/06/24 00:12:29;;;;;;;2.20;2.00;;;27.00;45.90;;;;;;5035181;28;20101;-64
2023/06/24 00:14:55;;;;;;;3.08;2.10;;;26.90;45.80;;;;;;5037651;28;20098;-63
2023/06/24 00:17:21;;;;;;;2.30;2.10;;;26.90;45.90;;;;;;5035744;28;20025;-63
2023/06/24 00:19:47;;;;;;;2.78;2.08;;;26.90;45.90;;;;;;5037585;28;20352;-62
2023/06/24 00:22:12;;;;;;;2.70;2.22;;;26.90;45.90;;;;;;5038778;28;20075;-63
2023/06/24 00:24:39;;;;;;;3.47;2.25;;;26.90;46.00;;;;;;5035642;28;21479;-64
2023/06/24 00:27:05;;;;;;;2.35;2.08;;;26.90;46.10;;;;;;5037397;28;20069;-62
2023/06/24 00:29:31;;;;;;;2.45;2.20;;;26.90;46.10;;;;;;5041880;28;20087;-63
2023/06/24 00:31:57;;;;;;;2.75;2.30;;;26.90;46.10;;;;;;5026106;28;20033;-62
2023/06/24 00:34:23;;;;;;;2.70;2.28;;;26.90;46.20;;;;;;5042686;28;20033;-61
2023/06/24 00:36:51;;;;;;;2.70;2.00;;;26.80;46.10;;;;;;5026500;28;20025;-63
2023/06/24 00:39:19;;;;;;;2.53;1.98;;;26.80;46.10;;;;;;5023575;28;20033;-64
2023/06/24 00:41:44;;;;;;;3.17;2.53;;;26.80;46.30;;;;;;5026081;28;20357;-62
2023/06/24 00:44:11;;;;;;;2.45;2.00;;;26.80;46.30;;;;;;5045230;28;20048;-62
2023/06/24 00:46:37;;;;;;;2.08;1.70;;;26.80;46.30;;;;;;5017576;28;20045;-63
2023/06/24 00:49:03;;;;;;;2.65;2.40;;;26.80;46.30;;;;;;5027788;28;20029;-65
2023/06/24 00:51:33;;;;;;;2.20;2.00;;;26.80;46.30;;;;;;5024293;28;20026;-63
2023/06/24 00:54:00;;;;;;;3.83;2.78;;;26.80;46.40;;;;;;5045075;28;20147;-61
2023/06/24 00:56:31;;;;;;;2.75;2.30;;;26.80;46.40;;;;;;5024831;28;20350;-64
2023/06/24 00:59:01;;;;;;;3.78;2.50;;;26.80;46.50;;;;;;5041694;28;20040;-61
2023/06/24 01:01:33;;;;;;;3.25;2.25;;;26.80;46.50;;;;;;5044637;28;20061;-61
2023/06/24 01:04:00;;;;;;;4.18;2.20;;;26.80;46.50;;;;;;5042119;28;20020;-61
2023/06/24 01:06:30;;;;;;;2.83;2.13;;;26.80;46.50;;;;;;5040333;28;20415;-62
2023/06/24 01:09:00;;;;;;;4.30;2.28;;;26.80;46.60;;;;;;5026300;28;20126;-62
2023/06/24 01:11:29;;;;;;;4.25;2.70;;;26.80;46.60;;;;;;5042182;28;20461;-62
2023/06/24 01:13:56;;;;;;;2.85;2.40;;;26.70;46.60;;;;;;5038040;28;20059;-63
2023/06/24 01:16:42;;;;;;;2.22;2.03;;;26.70;46.60;;;;;;5041542;28;20057;-62
2023/06/24 01:19:38;;;;;;;2.60;2.15;;;26.70;46.60;;;;;;5039407;28;20312;-64
2023/06/24 01:22:24;;;;;;;2.30;2.10;;;26.70;46.70;;;;;;5043057;28;20041;-62
2023/06/24 01:25:05;;;;;;;2.47;1.98;;;26.70;46.70;;;;;;5040948;28;20029;-63
2023/06/24 01:27:56;;;;;;;3.05;2.10;;;26.70;46.70;;;;;;5042359;28;20033;-62
2023/06/24 01:31:02;;;;;;;4.15;2.10;;;26.70;46.70;;;;;;5023759;28;20338;-62
2023/06/24 01:33:47;;;;;;;3.80;2.33;;;26.60;46.70;;;;;;5039489;28;20161;-62
2023/06/24 01:36:16;;;;;;;2.97;1.98;;;26.60;46.70;;;;;;5032296;28;20028;-63
2023/06/24 01:38:51;;;;;;;2.33;2.08;;;26.60;46.70;;;;;;5037017;28;20041;-61
2023/06/24 01:41:31;;;;;;;2.92;2.13;;;26.60;46.70;;;;;;5041142;28;20037;-62
2023/06/24 01:43:59;;;;;;;2.58;2.10;;;26.60;46.80;;;;;;5005528;28;20379;-63
2023/06/24 01:46:27;;;;;;;2.13;1.92;;;26.60;46.80;;;;;;4999078;28;20109;-63
2023/06/24 01:48:59;;;;;;;2.40;2.03;;;26.60;46.80;;;;;;5006804;28;20288;-62
2023/06/24 01:51:27;;;;;;;3.08;2.42;;;26.60;46.80;;;;;;4997714;28;20031;-62
2023/06/24 01:54:02;;;;;;;2.78;2.10;;;26.60;46.90;;;;;;4995430;28;20314;-63
2023/06/24 01:56:30;;;;;;;2.83;2.13;;;26.60;46.90;;;;;;4999243;28;20038;-62
2023/06/24 01:59:00;;;;;;;2.42;2.20;;;26.60;46.90;;;;;;5000018;28;20481;-63
2023/06/24 02:01:27;;;;;;;2.78;2.22;;;26.60;46.90;;;;;;5001308;28;20065;-63
2023/06/24 02:03:55;;;;;;;4.97;2.22;;;26.60;47.00;;;;;;4996377;28;20048;-62
2023/06/24 02:06:24;;;;;;;2.97;2.05;;;26.50;46.90;;;;;;4993365;28;20498;-63
2023/06/24 02:08:52;;;;;;;2.80;2.50;;;26.60;47.00;;;;;;4996943;28;20037;-62
2023/06/24 02:11:19;;;;;;;3.20;2.50;;;26.60;47.10;;;;;;5000339;28;20078;-62
2023/06/24 02:13:45;;;;;;;3.95;2.53;;;26.60;47.20;;;;;;5000082;28;20152;-61
2023/06/24 02:16:18;;;;;;;3.13;2.40;;;26.50;47.20;;;;;;4996155;28;20118;-61
2023/06/24 02:18:45;;;;;;;3.70;2.50;;;26.50;47.20;;;;;;4994657;28;20144;-63
2023/06/24 02:21:12;;;;;;;3.05;2.60;;;26.50;47.30;;;;;;4999718;28;20085;-61
2023/06/24 02:23:38;;;;;;;3.13;2.70;;;26.50;47.40;;;;;;4998280;28;20160;-63
2023/06/24 02:26:05;;;;;;;2.78;2.42;;;26.50;47.40;;;;;;5000131;28;20032;-63
2023/06/24 02:28:33;;;;;;;3.17;2.67;;;26.50;47.50;;;;;;4996331;28;20088;-62
2023/06/24 02:31:00;;;;;;;4.57;2.85;;;26.50;47.50;;;;;;4996873;28;20053;-62
2023/06/24 02:33:26;;;;;;;4.30;2.95;;;26.50;47.60;;;;;;4995369;28;20065;-64
2023/06/24 02:35:53;;;;;;;3.42;2.78;;;26.40;47.50;;;;;;5001435;28;20034;-62
2023/06/24 02:38:19;;;;;;;3.60;2.58;;;26.40;47.60;;;;;;5001681;28;20038;-63
2023/06/24 02:40:47;;;;;;;3.10;2.42;;;26.40;48.20;;;;;;5002716;28;20048;-61
2023/06/24 02:43:13;;;;;;;3.90;2.80;;;26.40;47.70;;;;;;5001487;28;20049;-61
2023/06/24 02:45:41;;;;;;;3.58;2.75;;;26.40;47.70;;;;;;5001759;28;20026;-65
2023/06/24 02:48:10;;;;;;;6.38;3.08;;;26.40;47.70;;;;;;5002542;28;20136;-62
2023/06/24 02:50:37;;;;;;;3.72;2.80;;;26.40;47.80;;;;;;5002131;28;20038;-63
2023/06/24 02:53:04;;;;;;;3.08;2.78;;;26.40;47.80;;;;;;4998156;28;20073;-64
2023/06/24 02:55:35;;;;;;;3.05;2.60;;;26.40;47.80;;;;;;4997163;28;20018;-62
2023/06/24 02:58:07;;;;;;;2.60;2.40;;;26.40;47.80;;;;;;5000351;28;20046;-61
2023/06/24 03:00:53;;;;;;;4.15;3.05;;;26.40;47.80;;;;;;5000044;28;20046;-63
2023/06/24 03:03:20;;;;;;;4.53;3.17;;;26.40;47.80;;;;;;4998112;28;20033;-62
2023/06/24 03:05:58;;;;;;;3.90;3.05;;;26.40;47.80;;;;;;4993479;28;20109;-62
2023/06/24 03:08:27;;;;;;;2.85;2.47;;;26.40;47.80;;;;;;4979651;28;20027;-62
2023/06/24 03:10:57;;;;;;;3.33;2.67;;;26.40;48.50;;;;;;4997102;28;20093;-64
2023/06/24 03:13:25;;;;;;;6.20;2.90;;;26.40;47.90;;;;;;4999859;28;20096;-63
2023/06/24 03:16:12;;;;;;;3.55;2.90;;;26.40;47.90;;;;;;4997098;28;20136;-61
2023/06/24 03:18:45;;;;;;;3.28;2.35;;;26.40;47.90;;;;;;4996579;28;20034;-62
2023/06/24 03:21:11;;;;;;;3.97;2.78;;;26.40;47.90;;;;;;4995104;28;20061;-62
2023/06/24 03:23:40;;;;;;;3.17;2.50;;;26.40;48.00;;;;;;4997648;28;20063;-61
2023/06/24 03:26:10;;;;;;;3.10;2.20;;;26.40;47.90;;;;;;4997732;28;20475;-62
2023/06/24 03:28:36;;;;;;;2.85;2.45;;;26.30;47.90;;;;;;4991525;28;20026;-63
2023/06/24 03:31:15;;;;;;;4.55;2.50;;;26.40;47.90;;;;;;4996028;28;20074;-63
2023/06/24 03:33:45;;;;;;;2.60;2.15;;;26.30;47.90;;;;;;5000133;28;20373;-63
2023/06/24 03:36:12;;;;;;;3.08;2.38;;;26.30;47.90;;;;;;4991593;28;20093;-65
2023/06/24 03:38:39;;;;;;;3.13;2.40;;;26.30;47.90;;;;;;4997555;28;20133;-63
2023/06/24 03:41:06;;;;;;;3.33;2.50;;;26.30;48.60;;;;;;4997796;28;20033;-63
2023/06/24 03:43:32;;;;;;;2.65;2.45;;;26.30;48.00;;;;;;4989207;28;21628;-63
2023/06/24 03:46:00;;;;;;;2.78;2.42;;;26.30;48.00;;;;;;5015462;28;20033;-64
2023/06/24 03:48:26;;;;;;;2.70;2.00;;;26.30;48.10;;;;;;5017966;28;20116;-62
2023/06/24 03:50:52;;;;;;;2.88;2.50;;;26.30;48.00;;;;;;5015244;28;20097;-62
2023/06/24 03:53:20;;;;;;;2.17;1.98;;;26.30;48.00;;;;;;5014186;28;20087;-62
2023/06/24 03:55:46;;;;;;;4.35;2.60;;;26.30;48.10;;;;;;5018406;28;20046;-64
2023/06/24 03:58:13;;;;;;;2.85;2.30;;;26.20;48.10;;;;;;5017515;28;20037;-64
2023/06/24 04:00:40;;;;;;;2.88;2.47;;;26.30;48.10;;;;;;5010941;28;20060;-63
2023/06/24 04:03:07;;;;;;;3.80;2.60;;;26.30;48.10;;;;;;5018396;28;20092;-61
2023/06/24 04:05:35;;;;;;;4.25;2.40;;;26.30;48.10;;;;;;5017408;28;20025;-62
2023/06/24 04:08:05;;;;;;;3.22;2.35;;;26.30;48.20;;;;;;5020126;28;20032;-62
2023/06/24 04:10:32;;;;;;;2.55;2.33;;;26.20;48.20;;;;;;5019962;28;20108;-60
2023/06/24 04:12:58;;;;;;;2.83;2.38;;;26.20;48.20;;;;;;5018787;28;20063;-62
2023/06/24 04:15:25;;;;;;;3.88;2.40;;;26.20;48.20;;;;;;5022127;28;20117;-62
2023/06/24 04:17:51;;;;;;;2.30;2.10;;;26.20;48.20;;;;;;5022129;28;20186;-62
2023/06/24 04:20:16;;;;;;;3.38;2.30;;;26.20;48.20;;;;;;5017701;28;20161;-62
2023/06/24 04:22:42;;;;;;;2.60;2.22;;;26.20;48.30;;;;;;5019414;28;20044;-63
2023/06/24 04:25:09;;;;;;;3.40;2.40;;;26.20;48.30;;;;;;5020659;28;20072;-63
2023/06/24 04:27:36;;;;;;;2.88;2.17;;;26.20;48.30;;;;;;5022313;28;20165;-61
2023/06/24 04:30:03;;;;;;;4.07;2.85;;;26.20;48.30;;;;;;5005619;28;20025;-64
2023/06/24 04:32:30;;;;;;;3.22;2.40;;;26.20;48.30;;;;;;5008890;28;20030;-63
2023/06/24 04:34:57;;;;;;;2.75;2.45;;;26.20;48.30;;;;;;5018428;28;20086;-63
2023/06/24 04:37:23;;;;;;;2.65;2.15;;;26.20;48.30;;;;;;5017291;28;20124;-62
2023/06/24 04:39:50;;;;;;;3.20;2.47;;;26.20;48.30;;;;;;5015967;28;20452;-63
2023/06/24 04:42:15;;;;;;;2.65;2.22;;;26.20;48.40;;;;;;5024484;28;20046;-64
2023/06/24 04:44:41;;;;;;;2.95;2.55;;;26.20;49.00;;;;;;5000265;28;20409;-62
2023/06/24 04:47:07;;;;;;;4.43;2.55;;;26.20;48.40;;;;;;5000860;28;20093;-61
2023/06/24 04:49:33;;;;;;;4.45;2.72;;;26.20;48.40;;;;;;5001575;28;20068;-62
2023/06/24 04:52:02;;;;;;;3.10;2.30;;;26.20;48.40;;;;;;5003142;28;20037;-63
2023/06/24 04:54:28;;;;;;;2.60;2.22;;;26.20;48.40;;;;;;5002585;28;20413;-63
2023/06/24 04:56:55;;;;;;;3.13;2.50;;;26.20;48.50;;;;;;5003296;28;20064;-63
2023/06/24 04:59:21;;;;;;;2.47;2.22;;;26.20;48.50;;;;;;5004327;28;20126;-61
2023/06/24 05:01:47;;;;;;;3.30;2.33;;;26.20;48.50;;;;;;5004811;28;20031;-62
2023/06/24 05:04:13;;;;;;;4.15;2.03;;;26.20;48.50;;;;;;5001689;28;20304;-62
2023/06/24 05:06:39;;;;;;;3.17;2.70;;;26.20;48.60;;;;;;5001416;28;20077;-62
2023/06/24 05:09:05;;;;;;;3.92;2.60;;;26.10;48.50;;;;;;5002423;28;20117;-64
2023/06/24 05:11:31;;;;;;;3.85;2.40;;;26.20;48.60;;;;;;4996779;28;20038;-60
2023/06/24 05:13:57;;;;;;;3.72;2.75;;;26.20;48.60;;;;;;5000130;28;20105;-62
2023/06/24 05:16:24;;;;;;;3.30;2.95;;;26.20;48.70;;;;;;4998405;28;20042;-63
2023/06/24 05:18:50;;;;;;;2.80;2.55;;;26.10;48.70;;;;;;5000745;28;20049;-62
2023/06/24 05:21:16;;;;;;;2.85;2.38;;;26.20;48.80;;;;;;4996594;28;20105;-61
2023/06/24 05:23:42;;;;;;;5.22;3.03;;;26.20;48.90;;;;;;4999367;28;20384;-65
2023/06/24 05:26:08;;;;;;;3.30;2.78;;;26.10;48.80;;;;;;5001887;28;20033;-63
2023/06/24 05:28:34;;;;;;;3.45;2.80;;;26.20;48.80;;;;;;5001421;28;20085;-64
2023/06/24 05:31:00;;;;;;;3.55;2.90;;;26.20;48.90;;;;;;5001412;28;20026;-62
2023/06/24 05:33:25;;;;;;;3.05;2.75;;;26.10;48.70;;;;;;5001388;28;20041;-63
2023/06/24 05:35:51;;;;;;;4.57;2.70;;;26.10;48.60;;;;;;4997303;28;20100;-63
2023/06/24 05:38:17;;;;;;;3.05;2.70;;;26.10;48.50;;;;;;4992636;28;20034;-63
2023/06/24 05:40:43;;;;;;;2.97;2.67;;;26.20;48.50;;;;;;4999115;28;20026;-65
2023/06/24 05:43:10;;;;;;;2.75;2.47;;;26.10;48.30;;;;;;5007131;28;20158;-64
2023/06/24 05:45:36;;;;;;;3.42;2.80;;;26.10;48.20;;;;;;5039718;28;20345;-64
2023/06/24 05:48:03;;;;;;;2.67;2.28;;;26.10;47.90;;;;;;5041194;28;20033;-63
2023/06/24 05:50:29;;;;;;;2.58;2.20;;;26.10;47.80;;;;;;5040529;28;20032;-62
2023/06/24 05:52:55;;;;;;;3.38;2.30;;;26.10;47.60;;;;;;5022491;28;20097;-62
2023/06/24 05:55:21;;;;;;;4.40;2.22;;;26.10;47.40;;;;;;5040488;28;20389;-62
2023/06/24 05:57:46;;;;;;;3.03;2.38;;;26.10;47.90;;;;;;5039735;28;20123;-63
2023/06/24 06:00:13;;;;;;;4.90;2.25;;;26.10;47.10;;;;;;5043889;28;20029;-63
2023/06/24 06:02:41;;;;;;;3.03;2.30;;;26.10;46.80;;;;;;5041372;28;20021;-62
2023/06/24 06:05:07;;;;;;;3.35;2.40;;;26.10;46.50;;;;;;5040981;28;20136;-63
2023/06/24 06:07:33;;;;;;;3.47;2.13;;;26.10;46.30;;;;;;5037914;28;20130;-62
2023/06/24 06:10:00;;;;;;;2.60;2.03;;;26.10;46.10;;;;;;5039322;28;20032;-65
2023/06/24 06:12:25;;;;;;;2.08;1.88;;;26.10;46.00;;;;;;5041910;28;20349;-62
2023/06/24 06:14:51;;;;;;;3.30;2.10;;;26.10;45.90;;;;;;5043032;28;20091;-62
2023/06/24 06:17:17;;;;;;;3.00;2.17;;;26.10;45.80;;;;;;5041591;28;20332;-62
2023/06/24 06:19:46;;;;;;;4.03;2.00;;;26.10;45.70;;;;;;5039673;28;20072;-63
2023/06/24 06:22:13;;;;;;;2.78;1.95;;;26.10;45.70;;;;;;5045324;28;20404;-64
2023/06/24 06:24:39;;;;;;;4.32;2.15;;;26.10;45.70;;;;;;5040618;28;20616;-62
2023/06/24 06:27:10;;;;;;;2.75;2.00;;;26.10;45.60;;;;;;5039134;28;20025;-65
2023/06/24 06:29:36;;;;;;;4.00;2.20;;;26.10;45.60;;;;;;5042009;28;20431;-62
2023/06/24 06:32:02;;;;;;;2.83;2.05;;;26.10;45.80;;;;;;5037179;28;20021;-63
2023/06/24 06:34:27;;;;;;;2.67;1.98;;;26.10;45.60;;;;;;5039762;28;20364;-62
2023/06/24 06:36:54;;;;;;;2.75;2.20;;;26.10;45.60;;;;;;5040495;28;20033;-63
2023/06/24 06:39:19;;;;;;;2.42;1.70;;;26.20;45.70;;;;;;5037756;28;20056;-62
2023/06/24 06:41:45;;;;;;;2.97;1.88;;;26.10;45.60;;;;;;5037763;28;20048;-64
2023/06/24 06:44:15;;;;;;;1.88;1.67;;;26.20;45.60;;;;;;5016803;28;20149;-65
2023/06/24 06:46:41;;;;;;;2.90;2.25;;;26.20;45.40;;;;;;5037447;28;20040;-62
2023/06/24 06:49:07;;;;;;;2.38;1.83;;;26.20;45.30;;;;;;5041942;28;20033;-63
2023/06/24 06:51:33;;;;;;;2.13;1.70;;;26.20;45.20;;;;;;5041334;28;20034;-62
2023/06/24 06:53:59;;;;;;;2.45;1.80;;;26.20;45.00;;;;;;5019612;28;20036;-63
2023/06/24 06:56:25;;;;;;;3.13;2.13;;;26.20;44.90;;;;;;5021753;28;20481;-64
2023/06/24 06:58:52;;;;;;;2.40;1.75;;;26.30;44.90;;;;;;5041224;28;20435;-60
2023/06/24 07:01:18;;;;;;;2.33;1.67;;;26.30;44.90;;;;;;5044943;28;20029;-57
2023/06/24 07:03:44;;;;;;;2.42;1.90;;;26.30;45.10;;;;;;5045127;28;20035;-64
2023/06/24 07:06:10;;;;;;;2.03;1.65;;;26.30;45.20;;;;;;5045544;28;20106;-67
2023/06/24 07:08:36;;;;;;;2.92;1.65;;;26.30;45.30;;;;;;5022072;28;20395;-64
2023/06/24 07:11:03;;;;;;;1.70;1.50;;;26.30;45.30;;;;;;5037718;28;20064;-61
2023/06/24 07:13:29;;;;;;;1.77;1.50;;;26.30;45.30;;;;;;5039392;28;20029;-63
2023/06/24 07:15:55;;;;;;;4.32;1.70;;;26.30;45.40;;;;;;5038628;28;20033;-62
2023/06/24 07:18:21;;;;;;;2.03;1.60;;;26.30;45.30;;;;;;5034456;28;20048;-65
2023/06/24 07:20:46;;;;;;;3.75;1.70;;;26.30;45.30;;;;;;5039989;28;20056;-65
2023/06/24 07:23:12;;;;;;;3.55;1.48;;;26.30;45.20;;;;;;5037140;28;20037;-64
2023/06/24 07:25:38;;;;;;;3.97;1.90;;;26.40;45.30;;;;;;5037732;28;20063;-63
2023/06/24 07:28:04;;;;;;;2.95;1.75;;;26.40;45.20;;;;;;5039112;28;20402;-64
2023/06/24 07:30:30;;;;;;;2.42;1.83;;;26.40;45.10;;;;;;5039563;28;20030;-63
2023/06/24 07:32:56;;;;;;;2.42;1.73;;;26.40;45.00;;;;;;5035696;28;20618;-63
2023/06/24 07:35:22;;;;;;;4.03;2.13;;;26.40;44.90;;;;;;5036713;28;20045;-62
2023/06/24 07:37:48;;;;;;;2.67;1.98;;;26.30;44.80;;;;;;5037437;28;20393;-63
2023/06/24 07:40:14;;;;;;;2.22;1.70;;;26.30;44.70;;;;;;5036621;28;20283;-64
2023/06/24 07:42:41;;;;;;;2.47;1.52;;;26.30;44.70;;;;;;5011532;28;20108;-62
2023/06/24 07:45:07;;;;;;;2.47;1.80;;;26.30;44.60;;;;;;5044805;28;20045;-62
2023/06/24 07:47:33;;;;;;;2.63;1.90;;;26.30;44.60;;;;;;5036951;28;20045;-63
2023/06/24 07:49:59;;;;;;;2.25;1.98;;;26.30;44.60;;;;;;5037301;28;20043;-64
2023/06/24 07:52:25;;;;;;;2.20;1.50;;;26.30;44.50;;;;;;5018374;28;20115;-63
2023/06/24 07:54:52;;;;;;;2.38;1.48;;;26.30;44.50;;;;;;5043126;28;20021;-63
2023/06/24 07:57:17;;;;;;;1.92;1.60;;;26.30;44.60;;;;;;5038809;28;20313;-62
2023/06/24 07:59:43;;;;;;;1.75;1.45;;;26.30;44.60;;;;;;5037943;28;20066;-63
2023/06/24 08:02:09;;;;;;;2.05;1.60;;;26.30;44.60;;;;;;5043779;28;20097;-65
2023/06/24 08:04:35;;;;;;;2.20;1.80;;;26.30;44.60;;;;;;5049570;28;20098;-64
2023/06/24 08:07:03;;;;;;;2.95;1.60;;;26.30;44.60;;;;;;5024423;28;20155;-65
2023/06/24 08:09:29;;;;;;;2.33;1.50;;;26.30;44.60;;;;;;5044397;28;20025;-65
2023/06/24 08:11:54;;;;;;;1.55;1.30;;;26.30;44.50;;;;;;5032031;28;20044;-66
2023/06/24 08:14:20;;;;;;;2.08;1.60;;;26.40;44.50;;;;;;5044195;28;20393;-63
2023/06/24 08:16:46;;;;;;;1.63;1.52;;;26.40;44.50;;;;;;5035527;28;20499;-64
2023/06/24 08:19:12;;;;;;;1.50;1.25;;;26.40;44.50;;;;;;5038131;28;20102;-64
2023/06/24 08:21:38;;;;;;;1.83;1.30;;;26.40;44.50;;;;;;5036826;28;20033;-65
2023/06/24 08:24:05;;;;;;;2.05;1.40;;;26.40;44.40;;;;;;5018171;28;20151;-64
2023/06/24 08:26:31;;;;;;;2.30;1.42;;;26.40;44.30;;;;;;5038196;28;20033;-65
2023/06/24 08:28:58;;;;;;;1.63;1.20;;;26.40;44.20;;;;;;5036849;28;20068;-64
2023/06/24 08:31:24;;;;;;;2.13;1.23;;;26.40;44.10;;;;;;5015316;28;20043;-63
2023/06/24 08:33:54;;;;;;;1.50;1.35;;;26.40;44.00;;;;;;5034427;28;20091;-64
2023/06/24 08:36:23;;;;;;;1.80;1.38;;;26.50;44.10;;;;;;5017348;28;21484;-63
2023/06/24 08:38:49;;;;;;;2.20;1.23;;;26.50;44.00;;;;;;5036880;28;20119;-64
2023/06/24 08:41:15;;;;;;;1.40;1.20;;;26.50;43.90;;;;;;5040038;28;20453;-63
2023/06/24 08:43:42;;;;;;;1.52;1.33;;;26.50;43.80;;;;;;5017527;28;20225;-65
2023/06/24 08:46:08;;;;;;;1.70;1.20;;;26.50;43.80;;;;;;5038659;28;20078;-65
2023/06/24 08:48:39;;;;;;;1.70;1.30;;;26.50;43.70;;;;;;5018562;28;20021;-63
2023/06/24 08:51:08;;;;;;;1.88;1.10;;;26.50;43.60;;;;;;5039131;28;20335;-63
2023/06/24 08:53:37;;;;;;;1.77;1.25;;;26.50;43.50;;;;;;5038220;28;20033;-64
2023/06/24 08:56:03;;;;;;;1.35;1.20;;;26.50;43.40;;;;;;5020736;28;20109;-63
2023/06/24 08:58:29;;;;;;;1.85;1.25;;;26.50;43.30;;;;;;5022827;28;20021;-63
2023/06/24 09:00:55;;;;;;;1.35;1.20;;;26.50;43.40;;;;;;5039723;28;20034;-65
2023/06/24 09:03:22;;;;;;;1.17;1.08;;;26.50;43.30;;;;;;5020148;28;20028;-64
2023/06/24 09:05:48;;;;;;;1.88;1.40;;;26.50;43.20;;;;;;5022270;28;20406;-64
2023/06/24 09:08:15;;;;;;;1.40;1.17;;;26.60;43.30;;;;;;5036977;28;20126;-64
2023/06/24 09:10:42;;;;;;;1.42;1.00;;;26.60;43.20;;;;;;5021880;28;20116;-64
2023/06/24 09:13:08;;;;;;;1.25;1.05;;;26.60;43.20;;;;;;5017423;28;20068;-62
2023/06/24 09:15:38;;;;;;;6.05;1.08;;;26.60;42.90;;;;;;5022552;28;20317;-64
2023/06/24 09:18:05;;;;;;;2.08;1.40;;;26.60;42.60;;;;;;5033490;28;20037;-65
2023/06/24 09:20:32;;;;;;;2.00;1.40;;;26.70;42.50;;;;;;5038369;28;20096;-64
2023/06/24 09:23:03;;;;;;;1.70;1.10;;;26.70;42.20;;;;;;5041828;28;20116;-65
2023/06/24 09:25:29;;;;;;;1.98;1.50;;;26.80;42.20;;;;;;5040777;28;20356;-65
2023/06/24 09:27:59;;;;;;;2.00;1.30;;;26.80;42.20;;;;;;5038720;28;20026;-63
2023/06/24 09:30:25;;;;;;;2.45;1.25;;;26.80;42.20;;;;;;5021683;28;20118;-63
2023/06/24 09:32:52;;;;;;;2.30;1.30;;;26.80;42.20;;;;;;5020584;28;20383;-65
2023/06/24 09:35:22;;;;;;;3.40;1.40;;;26.80;42.20;;;;;;5041099;28;20060;-63
2023/06/24 09:37:53;;;;;;;1.88;1.55;;;26.80;42.20;;;;;;5041438;28;20310;-64
2023/06/24 09:40:19;;;;;;;2.28;1.70;;;26.80;42.20;;;;;;5019901;28;20093;-66
2023/06/24 09:42:53;;;;;;;3.85;1.55;;;26.80;42.20;;;;;;5021408;28;20040;-67
2023/06/24 09:45:24;;;;;;;2.78;1.45;;;26.80;42.20;;;;;;5036844;28;20312;-64
2023/06/24 09:47:50;;;;;;;1.63;1.40;;;26.80;42.20;;;;;;5037035;28;20101;-63
2023/06/24 09:50:16;;;;;;;3.58;1.50;;;26.80;42.20;;;;;;5040081;28;20035;-63
2023/06/24 09:52:44;;;;;;;1.77;1.40;;;26.80;42.10;;;;;;5021992;28;20417;-63
2023/06/24 09:55:14;;;;;;;3.85;1.40;;;26.80;42.00;;;;;;5022354;28;20101;-64
2023/06/24 09:57:50;;;;;;;2.20;1.38;;;26.80;42.00;;;;;;5016886;28;20025;-64
2023/06/24 10:00:18;;;;;;;2.00;1.30;;;26.80;42.00;;;;;;5036109;28;20021;-64
2023/06/24 10:02:45;;;;;;;1.63;1.30;;;26.80;42.10;;;;;;5038955;28;20029;-62
2023/06/24 10:05:15;;;;;;;1.73;1.40;;;26.80;42.00;;;;;;5040202;28;20112;-64
2023/06/24 10:07:42;;;;;;;1.27;1.17;;;26.80;42.00;;;;;;5017306;28;20302;-65
2023/06/24 10:10:11;;;;;;;1.38;1.27;;;26.80;42.00;;;;;;5032477;28;20029;-63
2023/06/24 10:12:37;;;;;;;2.47;1.20;;;26.80;42.00;;;;;;5038022;28;20029;-63
2023/06/24 10:15:05;;;;;;;2.67;1.60;;;26.80;42.00;;;;;;5038884;28;20021;-63
2023/06/24 10:17:31;;;;;;;1.23;1.13;;;26.80;41.90;;;;;;5035990;28;20033;-66
2023/06/24 10:19:56;;;;;;;2.33;1.42;;;26.80;41.90;;;;;;5018037;28;20148;-64
2023/06/24 10:22:24;;;;;;;1.65;1.33;;;26.80;41.80;;;;;;5038115;28;20055;-65
2023/06/24 10:24:52;;;;;;;1.67;1.40;;;26.80;41.70;;;;;;5018317;28;20382;-65
2023/06/24 10:27:22;;;;;;;2.17;1.45;;;26.80;41.60;;;;;;5016057;28;20325;-66
2023/06/24 10:29:52;;;;;;;1.75;1.33;;;26.80;41.50;;;;;;5039237;28;20335;-67
2023/06/24 10:32:19;;;;;;;1.50;1.30;;;26.80;41.30;;;;;;5039796;28;20055;-63
2023/06/24 10:34:46;;;;;;;1.75;1.50;;;26.90;41.40;;;;;;5018567;28;20069;-66
2023/06/24 10:37:20;;;;;;;1.80;1.42;;;26.90;41.30;;;;;;5038554;28;20033;-64
2023/06/24 10:39:58;;;;;;;1.92;1.65;;;26.90;41.10;;;;;;5020185;28;20051;-65
2023/06/24 10:42:28;;;;;;;2.15;1.80;;;26.90;41.10;;;;;;5024227;28;20029;-64
2023/06/24 10:44:58;;;;;;;1.98;1.63;;;26.90;41.00;;;;;;5018455;28;20318;-66
2023/06/24 10:47:25;;;;;;;1.80;1.65;;;26.90;40.90;;;;;;5016858;28;20432;-66
2023/06/24 10:49:51;;;;;;;2.22;1.83;;;26.90;40.80;;;;;;5017505;28;20138;-62
2023/06/24 10:52:21;;;;;;;1.90;1.60;;;27.00;40.70;;;;;;5035189;28;20012;-66
2023/06/24 10:54:48;;;;;;;2.42;1.63;;;27.00;40.70;;;;;;5036850;28;20108;-66
2023/06/24 10:57:15;;;;;;;2.45;1.90;;;27.00;40.60;;;;;;5035014;28;20080;-66
2023/06/24 10:59:49;;;;;;;2.38;1.65;;;27.00;40.60;;;;;;5020949;28;20036;-64
2023/06/24 11:02:17;;;;;;;2.78;1.70;;;27.00;40.40;;;;;;5016301;28;20141;-64
2023/06/24 11:04:48;;;;;;;3.30;1.90;;;27.00;40.40;;;;;;4999147;28;20032;-64
2023/06/24 11:07:14;;;;;;;2.22;1.70;;;27.10;40.50;;;;;;5023258;28;20021;-64
2023/06/24 11:09:42;;;;;;;1.58;1.40;;;27.10;40.50;;;;;;5025107;28;20163;-65
2023/06/24 11:12:10;;;;;;;1.85;1.55;;;27.10;40.50;;;;;;5043549;28;20122;-65
2023/06/24 11:14:37;;;;;;;1.80;1.60;;;27.10;40.50;;;;;;5039650;28;20032;-65
2023/06/24 11:17:04;;;;;;;4.15;1.70;;;27.10;40.50;;;;;;5037998;28;20154;-69
2023/06/24 11:19:31;;;;;;;3.50;1.60;;;27.10;40.50;;;;;;5026255;28;20087;-68
2023/06/24 11:22:01;;;;;;;2.40;1.33;;;27.10;40.50;;;;;;5044736;28;20063;-68
2023/06/24 11:24:29;;;;;;;3.83;1.90;;;27.20;40.70;;;;;;5043101;28;20033;-67
2023/06/24 11:26:56;;;;;;;3.47;1.80;;;27.20;40.80;;;;;;5010431;28;20025;-66
2023/06/24 11:29:23;;;;;;;2.88;1.80;;;27.30;40.80;;;;;;5045394;28;20056;-68
2023/06/24 11:31:50;;;;;;;2.35;1.80;;;27.40;40.80;;;;;;5024153;28;20163;-67
2023/06/24 11:34:16;;;;;;;2.78;2.00;;;27.50;40.80;;;;;;5039289;28;20081;-70
2023/06/24 11:36:42;;;;;;;2.35;1.52;;;27.60;40.80;;;;;;5044603;28;20044;-69
2023/06/24 11:39:08;;;;;;;1.73;1.45;;;27.70;40.80;;;;;;5041430;28;20328;-66
2023/06/24 11:41:36;;;;;;;2.35;1.90;;;27.80;40.80;;;;;;5024639;28;20417;-64
2023/06/24 11:44:05;;;;;;;1.70;1.40;;;27.90;40.80;;;;;;5040535;28;20116;-64
2023/06/24 11:46:35;;;;;;;3.50;1.65;;;28.00;40.80;;;;;;5023401;28;20219;-65
2023/06/24 11:49:08;;;;;;;2.08;1.58;;;28.10;40.70;;;;;;5037806;28;20474;-65
2023/06/24 11:51:47;;;;;;;1.50;1.33;;;28.20;40.60;;;;;;5040681;28;20037;-64
2023/06/24 11:54:14;;;;;;;1.98;1.70;;;28.30;40.60;;;;;;5039378;28;20116;-64
2023/06/24 11:56:41;;;;;;;2.03;1.65;;;28.30;40.40;;;;;;5016040;28;20033;-68
2023/06/24 11:59:19;;;;;;;1.63;1.40;;;28.40;40.50;;;;;;5044477;28;20044;-71
2023/06/24 12:01:52;;;;;;;2.63;1.60;;;28.50;40.50;;;;;;5044262;28;20029;-65
2023/06/24 12:04:17;;;;;;;1.80;1.53;;;28.60;40.60;;;;;;5045004;28;20032;-69
2023/06/24 12:06:44;;;;;;;1.77;1.60;;;28.70;40.60;;;;;;5027595;28;20040;-67
2023/06/24 12:09:10;;;;;;;2.15;1.60;;;28.70;40.50;;;;;;5038771;28;20025;-65
2023/06/24 12:11:37;;;;;;;2.25;1.58;;;28.80;40.60;;;;;;5034311;28;20029;-64
2023/06/24 12:14:03;;;;;;;1.73;1.42;;;28.90;40.60;;;;;;5038528;28;20029;-65
2023/06/24 12:16:29;;;;;;;1.73;1.63;;;28.90;40.60;;;;;;5039529;28;20017;-64
2023/06/24 12:18:55;;;;;;;1.88;1.67;;;28.90;40.60;;;;;;5043403;28;20410;-64
2023/06/24 12:21:21;;;;;;;1.67;1.45;;;28.90;40.50;;;;;;5016941;28;20036;-65
2023/06/24 12:23:47;;;;;;;1.60;1.50;;;28.90;40.50;;;;;;5042192;28;20127;-65
2023/06/24 12:26:13;;;;;;;2.42;1.70;;;28.90;40.50;;;;;;5042398;28;20573;-64
2023/06/24 12:28:39;;;;;;;2.10;1.75;;;28.80;40.40;;;;;;5020063;28;20090;-67
2023/06/24 12:31:11;;;;;;;1.70;1.60;;;28.80;40.40;;;;;;5019353;28;20036;-64
2023/06/24 12:33:37;;;;;;;3.97;1.90;;;28.80;40.40;;;;;;5071698;28;20029;-65
2023/06/24 12:36:03;;;;;;;2.03;1.42;;;28.70;40.40;;;;;;5037693;28;20420;-66
2023/06/24 12:38:29;;;;;;;1.65;1.50;;;28.70;40.40;;;;;;5051649;28;20081;-65
2023/06/24 12:40:56;;;;;;;2.42;1.77;;;28.60;40.40;;;;;;5044040;28;20037;-67
2023/06/24 12:43:22;;;;;;;1.95;1.75;;;28.60;40.50;;;;;;5054364;28;20040;-64
2023/06/24 12:45:48;;;;;;;1.83;1.50;;;28.50;40.50;;;;;;5028324;28;20423;-64
2023/06/24 12:48:14;;;;;;;3.38;1.83;;;28.50;40.50;;;;;;5035670;28;20029;-67
2023/06/24 12:50:40;;;;;;;2.30;1.48;;;28.50;40.60;;;;;;5049697;28;20037;-65